Time;durP1;ratioP1;P1;durP2;ratioP2;P2;SDS_P1;SDS_P2;PMS_P1;PMS_P2;Temp;Humidity;BMP_temperature;BMP_pressure;BME280_temperature;BME280_humidity;BME280_pressure;Samples;Min_cycle;Max_cycle;Signal;HPM_P1;HPM_P2
2022/01/22 00:01:14;;;;;;;3.47;2.30;;;;;;;8.02;32.02;97607.03;5079341;28;20387;-66
2022/01/22 00:03:40;;;;;;;1.40;1.30;;;;;;;8.10;32.05;97623.56;5112872;28;20043;-67
2022/01/22 00:06:05;;;;;;;1.13;1.13;;;;;;;8.14;32.07;97626.63;5112784;28;20454;-66
2022/01/22 00:08:31;;;;;;;0.80;0.80;;;;;;;8.02;31.98;97592.00;5078797;28;20092;-66
2022/01/22 00:10:57;;;;;;;1.00;1.00;;;;;;;7.95;32.30;97582.38;5112624;28;20092;-67
2022/01/22 00:16:07;;;;;;;1.43;1.33;;;;;;;8.22;32.14;97626.50;5113332;28;20085;-66
2022/01/22 00:18:33;;;;;;;0.77;0.77;;;;;;;8.29;32.15;97630.88;5111297;28;20047;-67
2022/01/22 00:20:59;;;;;;;0.80;0.80;;;;;;;8.25;31.94;97645.50;5111853;27;20134;-66
2022/01/22 00:23:26;;;;;;;1.50;1.23;;;;;;;8.20;31.88;97639.09;5111165;28;20047;-66
2022/01/22 00:25:56;;;;;;;5.77;3.20;;;;;;;8.47;31.81;97627.75;5076468;28;20035;-67
2022/01/22 00:28:22;;;;;;;2.90;1.70;;;;;;;7.92;31.90;97598.59;5109873;28;20505;-66
2022/01/22 00:30:48;;;;;;;6.63;3.43;;;;;;;8.07;31.69;97628.44;5110685;28;20066;-66
2022/01/22 00:33:16;;;;;;;2.73;1.40;;;;;;;8.11;31.93;97632.31;5110774;28;20036;-67
2022/01/22 00:35:43;;;;;;;2.63;1.67;;;;;;;8.33;31.87;97634.75;5112212;28;20039;-68
2022/01/22 00:38:08;;;;;;;1.57;1.47;;;;;;;8.10;31.99;97644.69;5112038;28;20047;-67
2022/01/22 00:40:34;;;;;;;1.40;1.10;;;;;;;8.09;31.98;97642.25;5094975;28;20047;-67
2022/01/22 00:43:01;;;;;;;1.97;1.77;;;;;;;8.23;31.68;97642.22;5111800;28;20406;-67
2022/01/22 00:45:27;;;;;;;0.87;0.87;;;;;;;8.01;32.02;97610.69;5111383;28;20494;-67
2022/01/22 00:47:53;;;;;;;2.63;1.93;;;;;;;8.09;32.07;97637.78;5113205;28;20047;-66
2022/01/22 00:50:21;;;;;;;1.23;1.13;;;;;;;8.58;32.15;97637.75;5112651;28;20495;-65
2022/01/22 00:52:47;;;;;;;0.90;0.90;;;;;;;8.35;32.27;97638.03;5112144;28;20051;-67
2022/01/22 00:55:14;;;;;;;0.60;0.60;;;;;;;8.63;32.47;97650.41;5112646;28;20047;-67
2022/01/22 00:57:40;;;;;;;0.80;0.80;;;;;;;8.28;32.56;97641.63;5111919;28;20162;-66
2022/01/22 01:00:09;;;;;;;3.37;2.03;;;;;;;8.71;31.83;97653.75;5111520;28;20200;-67
2022/01/22 01:02:36;;;;;;;1.20;1.10;;;;;;;8.41;32.09;97658.41;5111506;28;20077;-66
2022/01/22 01:05:05;;;;;;;0.60;0.60;;;;;;;8.86;32.27;97658.91;5111352;28;20554;-67
2022/01/22 01:07:31;;;;;;;1.23;1.13;;;;;;;8.30;32.58;97655.50;5111176;28;20112;-67
2022/01/22 01:09:58;;;;;;;0.60;0.60;;;;;;;8.40;32.27;97655.97;5094197;28;20039;-66
2022/01/22 01:12:24;;;;;;;0.70;0.70;;;;;;;8.39;32.41;97663.06;5111146;28;20050;-65
2022/01/22 01:15:10;;;;;;;0.60;0.60;;;;;;;8.50;32.63;97667.84;5110859;28;20132;-66
2022/01/22 01:34:00;;;;;;;1.60;1.33;;;;;;;8.32;32.12;97621.72;5110952;28;20051;-66
2022/01/22 01:36:28;;;;;;;1.10;1.03;;;;;;;8.65;32.84;97666.91;5110878;28;20043;-66
2022/01/22 01:38:58;;;;;;;0.70;0.70;;;;;;;8.60;32.75;97664.84;5093876;28;20059;-67
2022/01/22 01:41:33;;;;;;;0.60;0.60;;;;;;;8.68;32.87;97662.06;5093892;28;20130;-67
2022/01/22 01:43:59;;;;;;;0.60;0.60;;;;;;;8.72;32.72;97665.16;5110773;28;20364;-67
2022/01/22 01:46:45;;;;;;;3.83;2.40;;;;;;;9.05;32.24;97669.63;5110818;28;20043;-67
2022/01/22 01:49:12;;;;;;;0.60;0.60;;;;;;;8.93;32.48;97665.88;5077088;28;20035;-67
2022/01/22 01:51:39;;;;;;;0.60;0.60;;;;;;;8.72;32.38;97663.28;5110561;28;20062;-67
2022/01/22 01:54:27;;;;;;;1.90;1.40;;;;;;;8.74;32.29;97671.03;5093907;28;20132;-68
2022/01/22 01:59:40;;;;;;;1.83;1.53;;;;;;;9.01;32.27;97678.94;5111711;28;20035;-66
2022/01/22 02:02:06;;;;;;;1.00;1.00;;;;;;;8.90;32.32;97674.22;5110522;28;20100;-67
2022/01/22 02:04:33;;;;;;;1.10;1.00;;;;;;;9.00;32.08;97679.13;5110161;28;20044;-68
2022/01/22 02:06:59;;;;;;;0.70;0.70;;;;;;;8.86;32.46;97667.66;5093130;28;20134;-66
2022/01/22 02:09:28;;;;;;;1.03;1.03;;;;;;;8.79;32.52;97671.28;5110278;28;20038;-66
2022/01/22 02:12:02;;;;;;;0.90;0.90;;;;;;;8.86;32.05;97698.59;5093265;28;20036;-66
2022/01/22 02:25:39;;;;;;;0.70;0.70;;;;;;;8.95;32.30;97690.31;5110003;28;20491;-67
2022/01/22 02:28:05;;;;;;;0.60;0.60;;;;;;;8.94;32.58;97694.00;5111887;28;20046;-67
2022/01/22 02:30:37;;;;;;;1.20;1.10;;;;;;;8.96;32.17;97699.91;5110497;28;20044;-67
2022/01/22 02:33:47;;;;;;;0.80;0.80;;;;;;;9.32;32.17;97650.16;5084314;28;20050;-67
2022/01/22 02:36:28;;;;;;;0.60;0.60;;;;;;;9.04;32.66;97696.28;5094532;28;20040;-68
2022/01/22 02:39:04;;;;;;;0.60;0.60;;;;;;;9.04;32.48;97688.34;5109560;28;20119;-66
2022/01/22 02:41:31;;;;;;;0.60;0.60;;;;;;;9.02;32.40;97693.00;5077380;28;20071;-67
2022/01/22 02:43:57;;;;;;;0.70;0.70;;;;;;;9.03;32.68;97660.22;5092674;28;20078;-67
2022/01/22 02:46:25;;;;;;;0.90;0.90;;;;;;;9.58;32.27;97697.94;5109869;28;20035;-68
2022/01/22 02:48:54;;;;;;;0.70;0.70;;;;;;;9.47;32.45;97703.81;5092863;28;20036;-67
2022/01/22 02:51:22;;;;;;;2.93;2.20;;;;;;;9.21;32.62;97677.22;5108345;28;20134;-67
2022/01/22 02:53:50;;;;;;;1.70;1.60;;;;;;;9.29;32.34;97694.75;5108056;28;20093;-67
2022/01/22 02:56:17;;;;;;;4.83;2.60;;;;;;;9.24;32.16;97702.50;5091218;28;20046;-67
2022/01/22 02:58:42;;;;;;;0.70;0.70;;;;;;;9.00;32.77;97710.91;5107804;28;20039;-66
2022/01/22 03:01:10;;;;;;;0.80;0.80;;;;;;;9.01;32.53;97713.34;5106996;28;20044;-67
2022/01/22 03:03:39;;;;;;;1.60;1.50;;;;;;;9.35;32.01;97675.47;5109111;28;20050;-68
2022/01/22 03:06:04;;;;;;;1.30;1.20;;;;;;;9.01;32.44;97718.66;5110609;28;20051;-67
2022/01/22 03:08:32;;;;;;;0.80;0.80;;;;;;;9.01;32.20;97731.88;5108894;28;20418;-67
2022/01/22 03:11:00;;;;;;;0.83;0.83;;;;;;;9.06;32.11;97723.38;5109064;28;20035;-67
2022/01/22 03:18:57;;;;;;;0.60;0.60;;;;;;;9.15;32.29;97738.91;5108774;28;20047;-67
2022/01/22 03:29:31;;;;;;;0.57;0.57;;;;;;;9.22;32.39;97747.72;5108781;28;20505;-68
2022/01/22 03:31:58;;;;;;;0.70;0.70;;;;;;;9.30;32.60;97739.59;5076846;28;20452;-67
2022/01/22 03:34:27;;;;;;;1.20;1.10;;;;;;;9.22;32.71;97741.59;5109029;28;20071;-66
2022/01/22 03:36:53;;;;;;;0.60;0.60;;;;;;;9.29;32.63;97756.50;5109012;28;20131;-67
2022/01/22 03:39:19;;;;;;;0.57;0.57;;;;;;;9.33;32.50;97755.09;5108730;28;20071;-67
2022/01/22 03:41:45;;;;;;;0.70;0.70;;;;;;;9.36;32.70;97769.81;5091694;28;20063;-67
2022/01/22 03:44:11;;;;;;;0.70;0.70;;;;;;;9.28;32.54;97735.53;5108869;28;20048;-68
2022/01/22 03:46:41;;;;;;;0.60;0.60;;;;;;;9.15;32.45;97724.88;5092050;28;20071;-68
2022/01/22 03:49:10;;;;;;;0.70;0.70;;;;;;;9.39;32.72;97769.41;5091596;28;20480;-67
2022/01/22 03:51:37;;;;;;;0.60;0.60;;;;;;;9.70;32.46;97778.50;5108958;28;20054;-67
2022/01/22 03:54:03;;;;;;;0.70;0.70;;;;;;;9.50;32.60;97774.16;5091845;28;20126;-67
2022/01/22 03:56:29;;;;;;;0.70;0.70;;;;;;;9.38;32.67;97787.13;5108797;28;20043;-67
2022/01/22 03:59:14;;;;;;;0.60;0.60;;;;;;;9.65;32.50;97788.09;5108860;28;20036;-67
2022/01/22 04:02:47;;;;;;;0.70;0.70;;;;;;;9.53;32.56;97801.06;5108483;28;20067;-66
2022/01/22 04:05:03;;;;;;;0.60;0.60;;;;;;;9.46;32.47;97791.44;5108383;28;20597;-67
2022/01/22 04:10:02;;;;;;;0.87;0.87;;;;;;;9.15;32.76;97749.50;5108532;28;20044;-68
2022/01/22 04:15:08;;;;;;;0.70;0.70;;;;;;;9.61;32.68;97797.47;5093126;28;20104;-66
2022/01/22 04:25:34;;;;;;;0.83;0.83;;;;;;;9.63;32.65;97811.31;5112283;28;20039;-67
2022/01/22 04:28:01;;;;;;;0.83;0.83;;;;;;;9.42;32.59;97809.59;5112049;28;20063;-66
2022/01/22 04:30:28;;;;;;;0.70;0.70;;;;;;;9.66;32.65;97818.88;5113787;28;20074;-67
2022/01/22 04:32:54;;;;;;;0.70;0.70;;;;;;;9.62;32.71;97823.75;5113476;28;20032;-66
2022/01/22 04:35:22;;;;;;;0.80;0.80;;;;;;;9.44;32.63;97774.94;5112095;28;20218;-67
2022/01/22 04:37:49;;;;;;;1.20;1.10;;;;;;;9.81;32.67;97824.88;5111684;28;20031;-68
2022/01/22 04:40:17;;;;;;;0.80;0.80;;;;;;;9.99;32.56;97822.50;5113307;28;20044;-68
2022/01/22 04:42:43;;;;;;;0.83;0.83;;;;;;;9.45;32.84;97827.75;5111849;28;20403;-67
2022/01/22 04:55:39;;;;;;;0.60;0.60;;;;;;;9.73;32.94;97825.81;5094331;28;20039;-67
2022/01/22 04:58:06;;;;;;;0.90;0.90;;;;;;;9.75;32.75;97845.00;5111171;28;20369;-67
2022/01/22 05:00:35;;;;;;;2.40;1.93;;;;;;;9.83;33.28;97847.50;5111370;28;20487;-66
2022/01/22 05:03:10;;;;;;;0.80;0.80;;;;;;;9.67;33.00;97842.53;5111400;28;20040;-68
2022/01/22 05:06:14;;;;;;;0.77;0.77;;;;;;;9.55;32.67;97856.50;5069309;28;20036;-68
2022/01/22 05:09:05;;;;;;;1.20;1.10;;;;;;;9.54;32.72;97844.28;5052164;28;20197;-67
2022/01/22 05:11:46;;;;;;;0.65;0.65;;;;;;;9.56;32.75;97856.31;5111863;27;20043;-67
2022/01/22 05:14:13;;;;;;;0.60;0.60;;;;;;;9.59;32.67;97873.69;5094138;28;20200;-67
2022/01/22 05:16:39;;;;;;;0.67;0.67;;;;;;;9.55;32.76;97875.88;5110531;28;20537;-67
2022/01/22 05:19:20;;;;;;;0.70;0.70;;;;;;;9.52;32.99;97870.97;5076615;28;20043;-67
2022/01/22 05:21:48;;;;;;;0.70;0.70;;;;;;;9.59;32.67;97884.28;5111804;28;20047;-67
2022/01/22 05:24:18;;;;;;;0.80;0.80;;;;;;;9.61;32.91;97884.91;5112126;28;20092;-67
2022/01/22 05:37:51;;;;;;;0.70;0.70;;;;;;;9.64;32.85;97901.22;5093461;28;20040;-67
2022/01/22 05:40:18;;;;;;;1.17;1.17;;;;;;;9.70;32.75;97910.25;5111840;28;20032;-67
2022/01/22 05:42:43;;;;;;;0.60;0.60;;;;;;;9.60;32.31;97929.13;5093171;28;20092;-67
2022/01/22 05:45:09;;;;;;;2.30;1.63;;;;;;;9.79;32.38;97920.47;5110987;28;20076;-68
2022/01/22 05:47:36;;;;;;;1.30;1.20;;;;;;;9.68;32.90;97906.97;5110490;28;20044;-66
2022/01/22 05:50:08;;;;;;;5.03;3.10;;;;;;;10.08;32.46;97916.81;5112025;27;20035;-66
2022/01/22 05:52:43;;;;;;;1.20;1.10;;;;;;;9.65;32.67;97920.59;5110528;28;20124;-68
2022/01/22 06:00:35;;;;;;;0.70;0.70;;;;;;;9.69;32.78;97920.03;5106817;28;20043;-65
2022/01/22 06:03:12;;;;;;;0.80;0.80;;;;;;;9.63;32.74;97941.16;5081217;28;20044;-68
2022/01/22 06:05:38;;;;;;;1.10;1.00;;;;;;;9.64;32.97;97945.47;5107430;28;20138;-69
2022/01/22 06:08:04;;;;;;;1.53;1.20;;;;;;;9.61;32.71;97956.47;5074694;28;20039;-70
2022/01/22 06:10:34;;;;;;;0.80;0.80;;;;;;;9.66;32.84;97965.47;5075005;28;20126;-71
2022/01/22 06:15:55;;;;;;;1.23;1.13;;;;;;;9.71;32.31;97960.41;5090743;28;20225;-71
2022/01/22 06:18:40;;;;;;;1.40;1.30;;;;;;;9.65;32.78;97974.44;5093157;28;20040;-71
2022/01/22 06:21:06;;;;;;;0.87;0.87;;;;;;;9.94;32.45;97982.19;5057424;28;20035;-70
2022/01/22 06:23:32;;;;;;;1.13;1.03;;;;;;;9.78;32.23;97969.22;5090927;28;20045;-70
2022/01/22 06:26:00;;;;;;;0.80;0.80;;;;;;;9.83;32.48;97968.63;5091110;28;20190;-70
2022/01/22 06:28:27;;;;;;;1.30;1.20;;;;;;;9.94;32.25;97971.59;5090849;28;20047;-70
2022/01/22 06:30:53;;;;;;;3.60;1.90;;;;;;;9.71;32.21;97984.28;5107738;28;20040;-71
2022/01/22 06:33:21;;;;;;;4.33;2.97;;;;;;;9.67;32.06;97984.84;5091633;28;20043;-69
2022/01/22 06:35:48;;;;;;;1.73;1.40;;;;;;;9.60;32.55;97968.06;5091284;28;20452;-70
2022/01/22 06:38:14;;;;;;;2.03;1.70;;;;;;;9.65;32.05;97981.56;5108025;28;20119;-71
2022/01/22 06:43:52;;;;;;;0.90;0.90;;;;;;;9.70;32.48;97982.63;5108554;28;20070;-70
2022/01/22 06:46:24;;;;;;;2.33;1.87;;;;;;;9.35;32.05;97951.75;5091646;28;20112;-72
2022/01/22 06:49:04;;;;;;;1.70;1.60;;;;;;;9.64;32.12;97996.63;5091108;28;20046;-70
2022/01/22 06:52:08;;;;;;;3.00;2.27;;;;;;;9.64;32.19;98001.94;5107414;28;20478;-70
2022/01/22 06:54:35;;;;;;;1.43;1.27;;;;;;;9.63;32.25;97997.66;5057907;28;20568;-71
2022/01/22 06:57:01;;;;;;;0.70;0.70;;;;;;;9.75;32.67;98004.06;5090754;28;20047;-69
2022/01/22 06:59:29;;;;;;;2.27;1.77;;;;;;;9.67;32.16;98006.84;5075613;28;20044;-71
2022/01/22 07:01:56;;;;;;;0.73;0.73;;;;;;;9.70;32.79;98011.78;5075061;28;20184;-69
2022/01/22 07:04:25;;;;;;;2.10;1.70;;;;;;;9.82;31.95;98034.13;5091816;28;20572;-69
2022/01/22 07:07:17;;;;;;;2.13;1.70;;;;;;;9.70;32.26;98022.38;5078193;28;20047;-69
2022/01/22 07:09:45;;;;;;;2.57;2.30;;;;;;;9.69;31.97;98020.75;5058082;28;20154;-69
2022/01/22 07:12:12;;;;;;;2.90;1.97;;;;;;;9.75;32.28;98029.75;5107394;28;20118;-70
2022/01/22 07:14:39;;;;;;;0.83;0.83;;;;;;;9.98;32.59;98051.53;5091439;28;20051;-71
2022/01/22 07:17:07;;;;;;;1.40;1.30;;;;;;;9.90;32.30;98047.22;5074914;28;20534;-69
2022/01/22 07:19:41;;;;;;;0.80;0.80;;;;;;;9.92;32.35;98060.28;5107447;28;20039;-69
2022/01/22 07:22:50;;;;;;;2.73;1.90;;;;;;;9.85;32.13;98054.94;5091713;28;20138;-69
2022/01/22 07:25:32;;;;;;;2.77;2.00;;;;;;;9.99;32.12;98067.25;5109394;28;20046;-70
2022/01/22 07:28:26;;;;;;;1.40;1.30;;;;;;;9.96;32.22;98070.31;5106097;28;20039;-70
2022/01/22 07:30:52;;;;;;;0.80;0.80;;;;;;;10.05;32.53;98079.78;5108086;28;20075;-70
2022/01/22 07:33:20;;;;;;;1.73;1.63;;;;;;;10.16;32.17;98091.72;5090873;28;20137;-70
2022/01/22 07:35:47;;;;;;;1.50;1.20;;;;;;;10.07;32.13;98085.72;5072689;28;20073;-68
2022/01/22 07:38:14;;;;;;;1.50;1.40;;;;;;;10.29;32.17;98102.41;5074636;28;20067;-68
2022/01/22 07:40:40;;;;;;;0.67;0.67;;;;;;;10.25;32.19;98104.63;5091784;28;20062;-67
2022/01/22 07:43:41;;;;;;;;;;;;;;;11.17;31.15;98103.31;5080725;28;20151;-68
2022/01/22 07:46:22;;;;;;;1.20;1.10;;;;;;;10.17;31.90;98119.88;5090262;28;19985;-69
2022/01/22 07:48:54;;;;;;;2.37;1.93;;;;;;;10.14;32.23;98120.28;5076031;28;20099;-68
2022/01/22 07:51:20;;;;;;;2.23;1.67;;;;;;;10.00;32.05;98118.50;5107815;28;20119;-67
2022/01/22 07:53:46;;;;;;;3.30;1.90;;;;;;;10.00;32.54;98127.28;5093157;28;20570;-68
2022/01/22 07:56:18;;;;;;;3.23;2.10;;;;;;;10.01;32.39;98118.28;5069394;28;20044;-67
2022/01/22 07:58:44;;;;;;;1.50;1.40;;;;;;;10.00;32.59;98118.50;5076911;28;20073;-67
2022/01/22 08:01:11;;;;;;;2.97;2.47;;;;;;;10.04;32.17;98130.38;5093549;28;20062;-68
2022/01/22 08:03:58;;;;;;;1.90;1.70;;;;;;;10.17;32.47;98133.16;5091683;28;20044;-67
2022/01/22 08:07:00;;;;;;;1.55;1.45;;;;;;;10.61;32.50;98136.31;5108484;28;20126;-66
2022/01/22 08:09:45;;;;;;;0.70;0.70;;;;;;;10.23;33.00;98129.72;5106676;28;20042;-67
2022/01/22 08:12:26;;;;;;;1.20;1.10;;;;;;;10.26;32.66;98145.25;5086434;28;20856;-67
2022/01/22 08:14:57;;;;;;;1.70;1.40;;;;;;;10.25;32.47;98146.28;5074521;28;20048;-67
2022/01/22 08:17:23;;;;;;;0.90;0.90;;;;;;;10.33;32.73;98132.06;5074460;28;20101;-67
2022/01/22 08:19:50;;;;;;;0.90;0.90;;;;;;;10.29;32.87;98136.91;5059033;28;20141;-68
2022/01/22 08:22:35;;;;;;;1.40;1.30;;;;;;;10.42;32.51;98144.16;5110316;28;20511;-68
2022/01/22 08:25:19;;;;;;;1.30;1.20;;;;;;;10.52;32.92;98142.00;5093488;28;20410;-69
2022/01/22 08:30:27;;;;;;;1.00;1.00;;;;;;;10.97;32.98;98147.59;5069229;28;20097;-70
2022/01/22 08:38:09;;;;;;;1.83;1.53;;;;;;;10.78;32.87;98177.50;5092045;28;20447;-69
2022/01/22 08:40:35;;;;;;;0.80;0.80;;;;;;;10.51;33.35;98121.75;5076521;28;20130;-69
2022/01/22 08:43:01;;;;;;;1.00;1.00;;;;;;;10.73;33.06;98155.19;5091741;28;20505;-69
2022/01/22 08:45:27;;;;;;;0.67;0.67;;;;;;;10.89;33.22;98157.53;5110005;28;20052;-69
2022/01/22 08:47:57;;;;;;;1.07;1.00;;;;;;;11.06;32.94;98177.44;5093658;28;20055;-70
2022/01/22 08:50:23;;;;;;;0.70;0.70;;;;;;;11.07;32.82;98168.47;5059256;28;20047;-70
2022/01/22 08:52:50;;;;;;;0.90;0.90;;;;;;;11.13;33.02;98187.09;5092482;28;20451;-68
2022/01/22 08:55:15;;;;;;;0.60;0.60;;;;;;;11.14;33.25;98187.91;5093023;28;20039;-69
2022/01/22 08:57:41;;;;;;;0.73;0.73;;;;;;;11.14;33.27;98180.78;5109016;28;20149;-70
2022/01/22 09:00:10;;;;;;;0.67;0.67;;;;;;;11.36;33.16;98187.59;5091660;28;20036;-69
2022/01/22 09:02:59;;;;;;;0.70;0.70;;;;;;;11.29;33.31;98191.25;5080382;28;20059;-69
2022/01/22 09:05:44;;;;;;;1.70;1.50;;;;;;;11.06;32.88;98148.22;5105067;28;20564;-70
2022/01/22 09:08:24;;;;;;;0.87;0.87;;;;;;;11.18;33.23;98168.72;5093127;28;20499;-69
2022/01/22 09:11:06;;;;;;;1.63;1.53;;;;;;;11.06;32.89;98174.78;5108110;28;20052;-69
2022/01/22 09:13:56;;;;;;;1.13;1.07;;;;;;;11.08;33.15;98189.53;5082022;28;20044;-69
2022/01/22 09:16:26;;;;;;;1.70;1.50;;;;;;;11.46;33.01;98217.31;5075261;28;20112;-69
2022/01/22 09:18:54;;;;;;;1.20;1.10;;;;;;;11.28;32.93;98232.97;5078487;28;20039;-69
2022/01/22 09:21:20;;;;;;;0.80;0.80;;;;;;;11.47;33.08;98226.13;5066416;28;20532;-68
2022/01/22 09:23:46;;;;;;;1.60;1.50;;;;;;;11.33;33.20;98251.78;5056982;28;20044;-69
2022/01/22 09:26:19;;;;;;;1.10;1.00;;;;;;;11.22;33.18;98240.91;5072288;28;20523;-68
2022/01/22 09:28:47;;;;;;;1.73;1.40;;;;;;;11.14;33.14;98244.53;5055859;28;20098;-68
2022/01/22 09:31:14;;;;;;;2.20;1.50;;;;;;;11.13;32.90;98256.16;5072142;28;20619;-69
2022/01/22 09:33:43;;;;;;;1.33;1.27;;;;;;;11.46;32.99;98265.16;5089915;28;20130;-69
2022/01/22 09:36:30;;;;;;;0.87;0.87;;;;;;;11.65;33.41;98259.13;5075687;28;20489;-68
2022/01/22 09:39:15;;;;;;;0.90;0.90;;;;;;;11.22;33.58;98252.38;5058686;28;20504;-69
2022/01/22 09:42:15;;;;;;;2.20;2.00;;;;;;;11.49;33.22;98246.16;5056265;28;20424;-68
2022/01/22 09:44:49;;;;;;;1.00;1.00;;;;;;;11.50;33.51;98247.78;5088860;28;20055;-68
2022/01/22 09:47:34;;;;;;;2.70;1.93;;;;;;;11.65;33.48;98259.13;5074797;28;20084;-69
2022/01/22 09:50:19;;;;;;;2.90;1.73;;;;;;;11.86;33.51;98247.56;5088980;28;20538;-68
2022/01/22 09:53:19;;;;;;;0.60;0.60;;;;;;;11.30;33.49;98224.81;5077438;28;20062;-68
2022/01/22 09:56:25;;;;;;;0.70;0.70;;;;;;;11.91;33.32;98253.13;5071333;28;20475;-69
2022/01/22 09:59:10;;;;;;;0.90;0.90;;;;;;;11.56;33.46;98233.72;5059751;28;20179;-69
2022/01/22 10:02:17;;;;;;;0.70;0.70;;;;;;;12.47;32.65;98264.31;5103449;28;20400;-69
2022/01/22 10:04:54;;;;;;;0.60;0.60;;;;;;;12.08;33.39;98251.72;5089056;28;20097;-69
2022/01/22 10:07:29;;;;;;;0.60;0.60;;;;;;;11.89;33.43;98257.81;5057795;28;20533;-69
2022/01/22 10:10:04;;;;;;;0.70;0.70;;;;;;;12.42;33.09;98259.59;5088718;28;20040;-69
2022/01/22 10:12:52;;;;;;;0.70;0.70;;;;;;;12.02;33.42;98257.03;5086688;28;20138;-68
2022/01/22 10:15:35;;;;;;;0.53;0.53;;;;;;;12.10;33.54;98265.63;5090058;28;20411;-69
2022/01/22 10:18:05;;;;;;;1.10;1.10;;;;;;;11.77;33.12;98163.66;5056126;28;20051;-69
2022/01/22 10:20:37;;;;;;;1.23;1.13;;;;;;;12.76;33.12;98262.03;5088658;28;20427;-69
2022/01/22 10:23:21;;;;;;;0.90;0.90;;;;;;;12.66;33.45;98263.47;5071831;28;20047;-69
2022/01/22 10:25:55;;;;;;;2.13;1.50;;;;;;;12.60;33.61;98264.28;5088590;28;20053;-69
2022/01/22 10:28:22;;;;;;;0.57;0.57;;;;;;;12.21;33.82;98275.69;5072194;28;20059;-69
2022/01/22 10:30:58;;;;;;;0.70;0.70;;;;;;;12.91;33.16;98275.16;5071458;28;20067;-68
2022/01/22 10:34:03;;;;;;;0.60;0.60;;;;;;;12.98;32.90;98252.00;5074452;28;20147;-68
2022/01/22 10:36:58;;;;;;;0.60;0.60;;;;;;;13.14;33.27;98280.94;5088424;28;20094;-68
2022/01/22 10:39:42;;;;;;;0.50;0.50;;;;;;;12.43;33.77;98287.00;5088655;28;20090;-68
2022/01/22 10:42:22;;;;;;;0.60;0.60;;;;;;;13.21;33.04;98285.22;5071732;28;20047;-69
2022/01/22 10:44:49;;;;;;;1.60;1.50;;;;;;;12.42;33.93;98280.06;5088662;28;20753;-69
2022/01/22 10:47:25;;;;;;;0.60;0.60;;;;;;;13.14;33.48;98286.25;5089894;28;20043;-68
2022/01/22 10:49:51;;;;;;;1.63;1.50;;;;;;;12.22;34.08;98265.88;5088902;28;20040;-69
2022/01/22 10:52:18;;;;;;;0.70;0.70;;;;;;;12.73;34.04;98297.09;5108561;28;20476;-68
2022/01/22 10:54:46;;;;;;;0.60;0.60;;;;;;;12.50;33.83;98309.97;5108013;28;20055;-68
2022/01/22 10:57:23;;;;;;;2.13;1.60;;;;;;;12.45;34.35;98304.44;5107953;28;20052;-68
2022/01/22 10:59:55;;;;;;;1.80;1.50;;;;;;;12.84;34.15;98323.13;5091082;28;20078;-69
2022/01/22 11:02:36;;;;;;;0.90;0.90;;;;;;;13.02;33.75;98287.91;5090795;28;20096;-68
2022/01/22 11:05:03;;;;;;;0.52;0.52;;;;;;;12.94;34.27;98322.72;5057881;28;20042;-68
2022/01/22 11:07:29;;;;;;;0.67;0.67;;;;;;;12.62;34.23;98310.19;5090619;28;20040;-69
2022/01/22 11:09:55;;;;;;;0.70;0.70;;;;;;;12.67;34.13;98297.09;5074567;28;20058;-69
2022/01/22 11:12:20;;;;;;;1.00;1.00;;;;;;;12.58;34.18;98314.28;5090670;28;20050;-68
2022/01/22 11:14:47;;;;;;;1.10;1.00;;;;;;;12.62;34.34;98327.00;5107111;28;20039;-69
2022/01/22 11:17:14;;;;;;;0.60;0.60;;;;;;;12.99;34.20;98334.41;5073547;28;20200;-68
2022/01/22 11:19:46;;;;;;;4.63;2.37;;;;;;;13.15;34.25;98336.69;5107259;28;20043;-69
2022/01/22 11:22:15;;;;;;;6.20;3.77;;;;;;;13.03;34.37;98333.00;5091090;28;20044;-69
2022/01/22 11:24:45;;;;;;;1.20;1.10;;;;;;;13.19;34.02;98345.13;5057146;28;20039;-69
2022/01/22 11:27:13;;;;;;;2.23;1.63;;;;;;;13.00;34.26;98354.75;5073698;28;20043;-69
2022/01/22 11:29:51;;;;;;;1.07;0.97;;;;;;;13.28;33.89;98359.88;5114579;28;20055;-69
2022/01/22 11:32:19;;;;;;;0.50;0.50;;;;;;;13.02;34.12;98347.34;5114892;28;20044;-69
2022/01/22 11:34:47;;;;;;;0.80;0.80;;;;;;;12.96;34.07;98364.13;5047229;28;20039;-69
2022/01/22 11:37:21;;;;;;;0.70;0.70;;;;;;;13.13;34.16;98370.72;5115445;28;20109;-68
2022/01/22 11:39:48;;;;;;;0.50;0.50;;;;;;;12.60;34.27;98369.00;5114798;28;20075;-69
2022/01/22 11:42:14;;;;;;;0.90;0.90;;;;;;;12.50;34.57;98368.53;5097858;28;20048;-69
2022/01/22 11:44:50;;;;;;;0.60;0.60;;;;;;;12.99;34.38;98374.38;5114617;28;20039;-69
2022/01/22 11:47:22;;;;;;;0.90;0.90;;;;;;;13.13;34.19;98370.72;5097143;28;20127;-69
2022/01/22 11:50:01;;;;;;;0.50;0.50;;;;;;;13.40;33.86;98388.38;5098135;28;20043;-69
2022/01/22 11:52:30;;;;;;;0.80;0.80;;;;;;;12.65;34.42;98401.19;5114497;28;20043;-69
2022/01/22 11:55:02;;;;;;;0.90;0.90;;;;;;;13.28;33.95;98390.00;5080630;28;20214;-69
2022/01/22 11:57:31;;;;;;;0.70;0.70;;;;;;;12.85;34.09;98362.09;5113751;28;20439;-69
2022/01/22 12:00:24;;;;;;;1.20;1.10;;;;;;;13.32;33.62;98395.75;5108982;28;20031;-68
2022/01/22 12:03:13;;;;;;;1.30;1.20;;;;;;;13.31;33.88;98399.44;5093821;28;20044;-69
2022/01/22 12:06:05;;;;;;;0.90;0.90;;;;;;;13.39;33.81;98418.72;5103042;27;20077;-71
2022/01/22 12:09:09;;;;;;;5.37;2.93;;;;;;;13.38;33.80;98429.59;5092233;28;20104;-70
2022/01/22 12:14:47;;;;;;;0.73;0.73;;;;;;;13.42;33.79;98439.66;5113979;28;20235;-69
2022/01/22 12:17:20;;;;;;;0.90;0.90;;;;;;;12.89;34.44;98440.59;5114535;27;20051;-67
2022/01/22 12:19:52;;;;;;;0.77;0.77;;;;;;;12.85;34.58;98449.19;5113362;28;20039;-69
2022/01/22 12:22:38;;;;;;;0.87;0.87;;;;;;;13.38;33.76;98453.59;5098310;28;20449;-69
2022/01/22 12:25:30;;;;;;;0.67;0.67;;;;;;;13.47;33.85;98455.03;5103774;28;20052;-69
2022/01/22 12:27:57;;;;;;;0.80;0.80;;;;;;;13.06;34.48;98455.22;5106044;28;20039;-69
2022/01/22 12:31:00;;;;;;;1.30;1.20;;;;;;;13.41;33.81;98458.50;5078470;28;20419;-71
2022/01/22 12:33:29;;;;;;;0.90;0.90;;;;;;;13.28;34.22;98462.00;5074151;28;20428;-70
2022/01/22 12:36:27;;;;;;;0.70;0.70;;;;;;;13.45;33.82;98465.91;5076259;28;20097;-68
2022/01/22 12:39:03;;;;;;;0.63;0.63;;;;;;;13.19;34.08;98433.09;5112152;28;20036;-68
2022/01/22 12:44:29;;;;;;;0.60;0.60;;;;;;;13.58;33.76;98479.25;5108496;28;20040;-69
2022/01/22 12:47:06;;;;;;;0.50;0.50;;;;;;;13.29;34.12;98471.66;5090622;28;20040;-68
2022/01/22 12:49:34;;;;;;;0.60;0.60;;;;;;;13.07;34.55;98486.16;5092470;28;20032;-68
2022/01/22 12:52:12;;;;;;;0.60;0.60;;;;;;;13.42;34.07;98484.19;5058559;28;20032;-68
2022/01/22 12:54:44;;;;;;;0.50;0.50;;;;;;;13.26;34.30;98500.56;5103937;28;20510;-68
2022/01/22 12:57:16;;;;;;;1.90;1.70;;;;;;;13.18;33.99;98458.91;5109467;28;20051;-69
2022/01/22 13:00:18;;;;;;;0.83;0.83;;;;;;;13.03;34.03;98434.28;5089752;28;20039;-68
2022/01/22 13:02:41;;;;;;;0.77;0.77;;;;;;;12.77;34.36;98508.81;5105155;28;20055;-68
2022/01/22 13:05:09;;;;;;;0.70;0.70;;;;;;;13.18;34.37;98514.06;5072076;28;20190;-68
2022/01/22 13:07:57;;;;;;;0.60;0.60;;;;;;;13.17;34.16;98504.44;5068118;28;20058;-68
2022/01/22 13:10:44;;;;;;;0.50;0.50;;;;;;;13.24;34.19;98500.75;5110092;28;20514;-68
2022/01/22 13:13:14;;;;;;;0.50;0.50;;;;;;;12.87;34.34;98519.88;5108916;28;20039;-68
2022/01/22 13:15:40;;;;;;;0.50;0.50;;;;;;;13.13;34.06;98520.00;5093327;28;20059;-68
2022/01/22 13:18:06;;;;;;;0.50;0.50;;;;;;;12.94;34.21;98515.44;5110111;28;20040;-67
2022/01/22 13:20:34;;;;;;;0.50;0.50;;;;;;;13.29;34.07;98516.97;5093594;28;20526;-69
2022/01/22 13:23:18;;;;;;;0.50;0.50;;;;;;;13.68;33.60;98518.88;5093425;28;20052;-70
2022/01/22 13:25:44;;;;;;;0.40;0.40;;;;;;;13.16;33.98;98519.59;5059416;28;20044;-70
2022/01/22 13:28:12;;;;;;;0.50;0.50;;;;;;;13.17;34.07;98523.94;5109939;28;20039;-70
2022/01/22 13:30:49;;;;;;;0.50;0.50;;;;;;;13.45;34.05;98531.78;5110213;28;20048;-70
2022/01/22 13:33:26;;;;;;;0.60;0.60;;;;;;;13.42;33.99;98541.00;5109950;28;20075;-70
2022/01/22 13:36:08;;;;;;;0.70;0.70;;;;;;;12.96;34.25;98539.22;5098336;28;20949;-69
2022/01/22 13:38:59;;;;;;;0.50;0.50;;;;;;;12.95;34.26;98540.22;5091909;28;20051;-70
2022/01/22 13:49:45;;;;;;;0.60;0.60;;;;;;;13.34;34.20;98554.53;5077649;28;20136;-69
2022/01/22 13:52:13;;;;;;;0.50;0.50;;;;;;;13.23;34.30;98562.28;5095383;28;20702;-70
2022/01/22 13:54:44;;;;;;;0.60;0.60;;;;;;;13.43;34.27;98572.00;5074062;28;20032;-70
2022/01/22 13:57:12;;;;;;;0.60;0.60;;;;;;;13.17;34.35;98566.59;5088312;28;20054;-69
2022/01/22 13:59:41;;;;;;;0.60;0.60;;;;;;;13.21;34.41;98572.31;5072155;28;20040;-70